createdAt,value
2019-04-28T00:01:24.000Z,98371
2019-04-28T00:03:31.000Z,98370
2019-04-28T00:04:55.000Z,98371
2019-04-28T00:06:59.000Z,98371
2019-04-28T00:08:34.000Z,98372
2019-04-28T00:10:36.000Z,98371
2019-04-28T00:12:00.000Z,98372
2019-04-28T00:14:04.000Z,98370
2019-04-28T00:15:28.000Z,98371
2019-04-28T00:17:33.000Z,98371
2019-04-28T00:19:00.000Z,98371
2019-04-28T00:21:05.000Z,98372
2019-04-28T00:22:34.000Z,98373
2019-04-28T00:24:39.000Z,98373
2019-04-28T00:26:12.000Z,98375
2019-04-28T00:28:19.000Z,98376
2019-04-28T00:29:50.000Z,98377
2019-04-28T00:31:58.000Z,98374
2019-04-28T00:33:22.000Z,98372
2019-04-28T00:35:31.000Z,98371
2019-04-28T00:37:02.000Z,98372
2019-04-28T00:39:09.000Z,98371
2019-04-28T00:40:36.000Z,98370
2019-04-28T00:42:42.000Z,98371
2019-04-28T00:44:15.000Z,98372
2019-04-28T00:46:26.000Z,98370
2019-04-28T00:47:56.000Z,98370
2019-04-28T00:50:04.000Z,98370
2019-04-28T00:51:29.000Z,98371
2019-04-28T00:53:36.000Z,98366
2019-04-28T00:55:01.000Z,98369
2019-04-28T00:57:02.000Z,98366
2019-04-28T00:58:26.000Z,98369
2019-04-28T01:00:32.000Z,98368
2019-04-28T01:01:56.000Z,98368
2019-04-28T01:04:09.000Z,98368
2019-04-28T01:05:39.000Z,98367
2019-04-28T01:07:52.000Z,98368
2019-04-28T01:09:22.000Z,98366
2019-04-28T01:11:38.000Z,98365
2019-04-28T01:13:01.000Z,98364
2019-04-28T01:15:11.000Z,98363
2019-04-28T01:16:41.000Z,98361
2019-04-28T01:20:25.000Z,98361
2019-04-28T01:21:13.000Z,98360
2019-04-28T01:22:40.000Z,98356
2019-04-28T01:24:48.000Z,98356
2019-04-28T01:26:19.000Z,98356
2019-04-28T01:28:31.000Z,98357
2019-04-28T01:30:00.000Z,98358
2019-04-28T01:32:19.000Z,98358
2019-04-28T01:33:51.000Z,98361
2019-04-28T01:36:01.000Z,98362
2019-04-28T01:37:32.000Z,98363
2019-04-28T01:39:39.000Z,98366
2019-04-28T01:41:08.000Z,98368
2019-04-28T01:43:15.000Z,98370
2019-04-28T01:44:49.000Z,98371
2019-04-28T01:46:59.000Z,98373
2019-04-28T01:48:31.000Z,98373
2019-04-28T01:50:44.000Z,98373
2019-04-28T01:52:16.000Z,98375
2019-04-28T01:54:26.000Z,98377
2019-04-28T01:55:55.000Z,98378
2019-04-28T01:58:05.000Z,98378
2019-04-28T01:59:35.000Z,98379
2019-04-28T02:01:45.000Z,98377
2019-04-28T02:03:18.000Z,98378
2019-04-28T02:05:31.000Z,98380
2019-04-28T02:07:03.000Z,98380
2019-04-28T02:09:14.000Z,98378
2019-04-28T02:10:45.000Z,98379
2019-04-28T02:18:10.000Z,98383
2019-04-28T02:19:32.000Z,98389
2019-04-28T02:21:33.000Z,98388
2019-04-28T02:22:56.000Z,98389
2019-04-28T02:24:56.000Z,98392
2019-04-28T02:26:18.000Z,98393
2019-04-28T02:28:20.000Z,98393
2019-04-28T02:29:42.000Z,98393
2019-04-28T02:31:43.000Z,98394
2019-04-28T02:33:05.000Z,98395
2019-04-28T02:35:06.000Z,98396
2019-04-28T02:36:28.000Z,98396
2019-04-28T02:38:31.000Z,98397
2019-04-28T02:39:57.000Z,98396
2019-04-28T02:41:58.000Z,98395
2019-04-28T02:43:23.000Z,98396
2019-04-28T02:45:24.000Z,98394
2019-04-28T02:46:46.000Z,98394
2019-04-28T02:48:47.000Z,98394
2019-04-28T02:50:09.000Z,98394
2019-04-28T02:52:12.000Z,98396
2019-04-28T02:53:34.000Z,98396
2019-04-28T02:55:34.000Z,98397
2019-04-28T02:56:57.000Z,98400
2019-04-28T02:58:59.000Z,98401
2019-04-28T03:00:23.000Z,98402
2019-04-28T03:02:24.000Z,98403
2019-04-28T03:03:46.000Z,98404
2019-04-28T03:05:46.000Z,98405
2019-04-28T03:07:13.000Z,98406
2019-04-28T03:09:18.000Z,98406
2019-04-28T03:10:42.000Z,98405
2019-04-28T03:12:45.000Z,98405
2019-04-28T03:14:08.000Z,98403
2019-04-28T03:16:11.000Z,98403
2019-04-28T03:17:34.000Z,98403
2019-04-28T03:19:36.000Z,98405
2019-04-28T03:20:58.000Z,98407
2019-04-28T03:23:05.000Z,98409
2019-04-28T03:24:35.000Z,98411
2019-04-28T03:26:37.000Z,98414
2019-04-28T03:27:59.000Z,98413
2019-04-28T03:30:02.000Z,98413
2019-04-28T03:31:25.000Z,98414
2019-04-28T03:34:05.000Z,98414
2019-04-28T03:35:28.000Z,98415
2019-04-28T03:37:34.000Z,98415
2019-04-28T03:38:57.000Z,98417
2019-04-28T03:40:59.000Z,98418
2019-04-28T03:42:23.000Z,98418
2019-04-28T03:44:25.000Z,98419
2019-04-28T03:45:48.000Z,98419
2019-04-28T03:47:52.000Z,98417
2019-04-28T03:49:14.000Z,98417
2019-04-28T03:51:17.000Z,98416
2019-04-28T03:52:44.000Z,98418
2019-04-28T03:54:45.000Z,98421
2019-04-28T03:56:10.000Z,98421
2019-04-28T03:58:15.000Z,98422
2019-04-28T03:59:39.000Z,98424
2019-04-28T04:01:46.000Z,98427
2019-04-28T04:03:21.000Z,98429
2019-04-28T04:05:24.000Z,98428
2019-04-28T04:06:47.000Z,98428
2019-04-28T04:08:51.000Z,98429
2019-04-28T04:10:14.000Z,98429
2019-04-28T04:12:18.000Z,98428
2019-04-28T04:13:45.000Z,98429
2019-04-28T04:15:48.000Z,98429
2019-04-28T04:17:18.000Z,98430
2019-04-28T04:19:24.000Z,98430
2019-04-28T04:20:48.000Z,98430
2019-04-28T04:22:52.000Z,98430
2019-04-28T04:24:18.000Z,98431
2019-04-28T04:26:21.000Z,98430
2019-04-28T04:27:43.000Z,98430
2019-04-28T04:29:47.000Z,98430
2019-04-28T04:31:12.000Z,98429
2019-04-28T04:33:18.000Z,98431
2019-04-28T04:34:46.000Z,98432
2019-04-28T04:36:51.000Z,98435
2019-04-28T04:38:17.000Z,98436
2019-04-28T04:40:19.000Z,98437
2019-04-28T04:41:49.000Z,98437
2019-04-28T04:43:54.000Z,98440
2019-04-28T04:45:22.000Z,98442
2019-04-28T04:47:26.000Z,98444
2019-04-28T04:48:53.000Z,98447
2019-04-28T04:50:57.000Z,98449
2019-04-28T04:52:27.000Z,98453
2019-04-28T04:54:33.000Z,98454
2019-04-28T04:55:59.000Z,98455
2019-04-28T04:58:04.000Z,98456
2019-04-28T04:59:31.000Z,98457
2019-04-28T05:01:35.000Z,98459
2019-04-28T05:02:58.000Z,98460
2019-04-28T05:05:08.000Z,98465
2019-04-28T05:06:42.000Z,98464
2019-04-28T05:08:43.000Z,98466
2019-04-28T05:10:08.000Z,98467
2019-04-28T05:12:12.000Z,98469
2019-04-28T05:13:39.000Z,98469
2019-04-28T05:15:43.000Z,98471
2019-04-28T05:17:09.000Z,98472
2019-04-28T05:19:11.000Z,98474
2019-04-28T05:20:35.000Z,98474
2019-04-28T05:22:37.000Z,98475
2019-04-28T05:24:04.000Z,98478
2019-04-28T05:26:10.000Z,98479
2019-04-28T05:27:38.000Z,98482
2019-04-28T05:29:45.000Z,98483
2019-04-28T05:31:13.000Z,98485
2019-04-28T05:33:31.000Z,98487
2019-04-28T05:34:59.000Z,98490
2019-04-28T05:37:05.000Z,98490
2019-04-28T05:38:32.000Z,98488
2019-04-28T05:40:36.000Z,98490
2019-04-28T05:42:04.000Z,98492
2019-04-28T05:44:14.000Z,98492
2019-04-28T05:45:41.000Z,98493
2019-04-28T05:47:50.000Z,98495
2019-04-28T05:49:14.000Z,98496
2019-04-28T05:51:19.000Z,98497
2019-04-28T05:52:45.000Z,98501
2019-04-28T05:54:51.000Z,98504
2019-04-28T05:56:17.000Z,98506
2019-04-28T05:58:22.000Z,98508
2019-04-28T05:59:51.000Z,98509
2019-04-28T06:02:07.000Z,98511
2019-04-28T06:03:37.000Z,98514
2019-04-28T06:05:47.000Z,98515
2019-04-28T06:07:22.000Z,98513
2019-04-28T06:09:32.000Z,98515
2019-04-28T06:10:59.000Z,98513
2019-04-28T06:13:09.000Z,98512
2019-04-28T06:14:42.000Z,98510
2019-04-28T06:16:59.000Z,98513
2019-04-28T06:18:33.000Z,98514
2019-04-28T06:26:42.000Z,98510
2019-04-28T06:28:04.000Z,98512
2019-04-28T06:30:05.000Z,98515
2019-04-28T06:31:27.000Z,98517
2019-04-28T06:33:29.000Z,98520
2019-04-28T06:34:56.000Z,98521
2019-04-28T06:43:01.000Z,98519
2019-04-28T06:44:23.000Z,98520
2019-04-28T06:46:24.000Z,98521
2019-04-28T06:47:46.000Z,98522
2019-04-28T06:49:47.000Z,98526
2019-04-28T06:51:09.000Z,98527
2019-04-28T06:53:10.000Z,98527
2019-04-28T06:54:32.000Z,98527
2019-04-28T06:56:33.000Z,98529
2019-04-28T06:57:55.000Z,98529
2019-04-28T06:59:56.000Z,98529
2019-04-28T07:01:18.000Z,98528
2019-04-28T07:03:19.000Z,98532
2019-04-28T07:04:45.000Z,98530
2019-04-28T07:06:46.000Z,98531
2019-04-28T07:08:08.000Z,98531
2019-04-28T07:10:09.000Z,98533
2019-04-28T07:11:31.000Z,98535
2019-04-28T07:13:33.000Z,98537
2019-04-28T07:14:55.000Z,98539
2019-04-28T07:16:56.000Z,98541
2019-04-28T07:18:19.000Z,98544
2019-04-28T07:20:20.000Z,98545
2019-04-28T07:21:42.000Z,98544
2019-04-28T07:23:44.000Z,98544
2019-04-28T07:25:06.000Z,98546
2019-04-28T07:27:08.000Z,98542
2019-04-28T07:28:30.000Z,98541
2019-04-28T07:30:31.000Z,98544
2019-04-28T07:31:54.000Z,98548
2019-04-28T07:33:57.000Z,98548
2019-04-28T07:35:21.000Z,98550
2019-04-28T07:37:23.000Z,98552
2019-04-28T07:38:45.000Z,98552
2019-04-28T07:40:46.000Z,98556
2019-04-28T07:42:09.000Z,98559
2019-04-28T07:44:14.000Z,98559
2019-04-28T07:45:37.000Z,98559
2019-04-28T07:47:38.000Z,98562
2019-04-28T07:49:02.000Z,98563
2019-04-28T07:51:06.000Z,98566
2019-04-28T07:52:29.000Z,98570
2019-04-28T07:54:30.000Z,98570
2019-04-28T07:55:55.000Z,98572
2019-04-28T07:57:56.000Z,98572
2019-04-28T07:59:20.000Z,98572
2019-04-28T08:01:22.000Z,98572
2019-04-28T08:02:45.000Z,98575
2019-04-28T08:04:47.000Z,98577
2019-04-28T08:06:10.000Z,98580
2019-04-28T08:08:12.000Z,98584
2019-04-28T08:09:36.000Z,98585
2019-04-28T08:11:39.000Z,98587
2019-04-28T08:13:04.000Z,98588
2019-04-28T08:15:08.000Z,98586
2019-04-28T08:16:31.000Z,98588
2019-04-28T08:18:35.000Z,98587
2019-04-28T08:20:00.000Z,98587
2019-04-28T08:22:01.000Z,98589
2019-04-28T08:23:23.000Z,98594
2019-04-28T08:25:26.000Z,98594
2019-04-28T08:26:49.000Z,98599
2019-04-28T08:28:51.000Z,98597
2019-04-28T08:30:13.000Z,98601
2019-04-28T08:32:16.000Z,98602
2019-04-28T08:33:38.000Z,98605
2019-04-28T08:35:41.000Z,98604
2019-04-28T08:37:05.000Z,98608
2019-04-28T08:39:07.000Z,98612
2019-04-28T08:40:33.000Z,98609
2019-04-28T08:42:36.000Z,98610
2019-04-28T08:43:58.000Z,98611
2019-04-28T08:46:01.000Z,98607
2019-04-28T08:47:34.000Z,98609
2019-04-28T08:49:37.000Z,98613
2019-04-28T08:51:01.000Z,98616
2019-04-28T08:53:03.000Z,98619
2019-04-28T08:54:27.000Z,98618
2019-04-28T08:56:28.000Z,98615
2019-04-28T08:57:53.000Z,98615
2019-04-28T09:00:01.000Z,98618
2019-04-28T09:01:24.000Z,98621
2019-04-28T09:03:26.000Z,98623
2019-04-28T09:04:51.000Z,98622
2019-04-28T09:06:54.000Z,98619
2019-04-28T09:08:16.000Z,98620
2019-04-28T09:10:22.000Z,98618
2019-04-28T09:11:51.000Z,98622
2019-04-28T09:13:53.000Z,98622
2019-04-28T09:15:22.000Z,98623
2019-04-28T09:17:27.000Z,98626
2019-04-28T09:18:53.000Z,98627
2019-04-28T09:20:58.000Z,98628
2019-04-28T09:22:23.000Z,98627
2019-04-28T09:24:25.000Z,98628
2019-04-28T09:25:49.000Z,98629
2019-04-28T09:27:57.000Z,98632
2019-04-28T09:29:21.000Z,98635
2019-04-28T09:31:29.000Z,98635
2019-04-28T09:32:59.000Z,98638
2019-04-28T09:35:04.000Z,98637
2019-04-28T09:36:31.000Z,98637
2019-04-28T09:38:41.000Z,98635
2019-04-28T09:40:06.000Z,98633
2019-04-28T09:42:13.000Z,98631
2019-04-28T09:43:39.000Z,98632
2019-04-28T09:45:45.000Z,98636
2019-04-28T09:47:10.000Z,98636
2019-04-28T09:49:13.000Z,98634
2019-04-28T09:50:41.000Z,98634
2019-04-28T09:52:48.000Z,98634
2019-04-28T09:54:16.000Z,98636
2019-04-28T09:56:24.000Z,98636
2019-04-28T09:57:53.000Z,98638
2019-04-28T10:00:00.000Z,98639
2019-04-28T10:01:27.000Z,98640
2019-04-28T10:03:33.000Z,98641
2019-04-28T10:05:03.000Z,98642
2019-04-28T10:07:12.000Z,98642
2019-04-28T10:08:44.000Z,98642
2019-04-28T10:10:50.000Z,98644
2019-04-28T10:12:20.000Z,98648
2019-04-28T10:14:30.000Z,98643
2019-04-28T10:16:02.000Z,98644
2019-04-28T10:18:08.000Z,98644
2019-04-28T10:19:34.000Z,98646
2019-04-28T10:21:45.000Z,98647
2019-04-28T10:23:17.000Z,98648
2019-04-28T10:25:26.000Z,98647
2019-04-28T10:26:53.000Z,98648
2019-04-28T10:29:01.000Z,98649
2019-04-28T10:30:26.000Z,98650
2019-04-28T10:32:33.000Z,98650
2019-04-28T10:34:04.000Z,98649
2019-04-28T10:36:12.000Z,98646
2019-04-28T10:37:43.000Z,98640
2019-04-28T10:39:57.000Z,98638
2019-04-28T10:41:21.000Z,98639
2019-04-28T10:43:27.000Z,98640
2019-04-28T10:44:55.000Z,98643
2019-04-28T10:46:58.000Z,98646
2019-04-28T10:48:25.000Z,98649
2019-04-28T10:50:35.000Z,98652
2019-04-28T10:52:06.000Z,98652
2019-04-28T10:54:17.000Z,98654
2019-04-28T10:55:48.000Z,98654
2019-04-28T10:57:55.000Z,98651
2019-04-28T10:59:27.000Z,98651
2019-04-28T11:01:38.000Z,98648
2019-04-28T11:03:08.000Z,98649
2019-04-28T11:05:21.000Z,98651
2019-04-28T11:06:56.000Z,98653
2019-04-28T11:09:08.000Z,98653
2019-04-28T11:10:39.000Z,98652
2019-04-28T11:12:45.000Z,98651
2019-04-28T11:14:20.000Z,98646
2019-04-28T11:16:29.000Z,98643
2019-04-28T11:17:54.000Z,98645
2019-04-28T11:20:03.000Z,98644
2019-04-28T11:21:32.000Z,98645
2019-04-28T11:23:41.000Z,98647
2019-04-28T11:25:14.000Z,98649
2019-04-28T11:27:27.000Z,98648
2019-04-28T11:28:56.000Z,98650
2019-04-28T11:36:23.000Z,98658
2019-04-28T11:37:45.000Z,98656
2019-04-28T11:39:52.000Z,98658
2019-04-28T11:41:14.000Z,98657
2019-04-28T11:43:15.000Z,98658
2019-04-28T11:44:37.000Z,98654
2019-04-28T11:46:38.000Z,98654
2019-04-28T11:48:00.000Z,98657
2019-04-28T11:50:01.000Z,98651
2019-04-28T11:51:23.000Z,98648
2019-04-28T11:53:24.000Z,98648
2019-04-28T11:54:46.000Z,98651
2019-04-28T11:56:48.000Z,98655
2019-04-28T11:58:10.000Z,98656
2019-04-28T12:00:11.000Z,98656
2019-04-28T12:01:34.000Z,98658
2019-04-28T12:03:35.000Z,98659
2019-04-28T12:04:57.000Z,98658
2019-04-28T12:06:59.000Z,98660
2019-04-28T12:08:23.000Z,98659
2019-04-28T12:10:24.000Z,98658
2019-04-28T12:11:46.000Z,98664
2019-04-28T12:13:48.000Z,98658
2019-04-28T12:15:10.000Z,98658
2019-04-28T12:17:12.000Z,98664
2019-04-28T12:18:38.000Z,98665
2019-04-28T12:20:40.000Z,98663
2019-04-28T12:22:02.000Z,98662
2019-04-28T12:24:04.000Z,98659
2019-04-28T12:25:27.000Z,98657
2019-04-28T12:27:28.000Z,98653
2019-04-28T12:28:52.000Z,98650
2019-04-28T12:30:54.000Z,98648
2019-04-28T12:32:17.000Z,98650
2019-04-28T12:34:18.000Z,98647
2019-04-28T12:35:40.000Z,98648
2019-04-28T12:37:49.000Z,98644
2019-04-28T12:39:13.000Z,98638
2019-04-28T12:41:15.000Z,98637
2019-04-28T12:42:37.000Z,98636
2019-04-28T12:44:39.000Z,98634
2019-04-28T12:46:02.000Z,98631
2019-04-28T12:48:03.000Z,98630
2019-04-28T12:49:27.000Z,98631
2019-04-28T12:51:31.000Z,98633
2019-04-28T12:52:54.000Z,98633
2019-04-28T12:54:55.000Z,98634
2019-04-28T12:56:17.000Z,98630
2019-04-28T12:58:20.000Z,98632
2019-04-28T12:59:42.000Z,98636
2019-04-28T13:01:43.000Z,98637
2019-04-28T13:03:06.000Z,98633
2019-04-28T13:05:06.000Z,98628
2019-04-28T13:06:30.000Z,98625
2019-04-28T13:08:32.000Z,98623
2019-04-28T13:10:02.000Z,98616
2019-04-28T13:12:04.000Z,98613
2019-04-28T13:13:26.000Z,98611
2019-04-28T13:15:29.000Z,98607
2019-04-28T13:16:53.000Z,98603
2019-04-28T13:18:57.000Z,98603
2019-04-28T13:20:19.000Z,98603
2019-04-28T13:22:20.000Z,98598
2019-04-28T13:23:43.000Z,98598
2019-04-28T13:25:48.000Z,98598
2019-04-28T13:27:11.000Z,98598
2019-04-28T13:29:18.000Z,98601
2019-04-28T13:30:43.000Z,98600
2019-04-28T13:32:48.000Z,98597
2019-04-28T13:34:12.000Z,98600
2019-04-28T13:36:14.000Z,98600
2019-04-28T13:37:40.000Z,98601
2019-04-28T13:39:47.000Z,98600
2019-04-28T13:41:09.000Z,98597
2019-04-28T13:43:10.000Z,98598
2019-04-28T13:44:33.000Z,98595
2019-04-28T13:46:38.000Z,98593
2019-04-28T13:48:00.000Z,98586
2019-04-28T13:50:02.000Z,98588
2019-04-28T13:51:30.000Z,98588
2019-04-28T13:53:32.000Z,98586
2019-04-28T13:54:58.000Z,98585
2019-04-28T13:57:02.000Z,98583
2019-04-28T13:58:29.000Z,98581
2019-04-28T14:00:33.000Z,98580
2019-04-28T14:02:00.000Z,98577
2019-04-28T14:04:05.000Z,98572
2019-04-28T14:05:31.000Z,98571
2019-04-28T14:07:36.000Z,98575
2019-04-28T14:09:02.000Z,98572
2019-04-28T14:11:07.000Z,98572
2019-04-28T14:12:31.000Z,98571
2019-04-28T14:14:40.000Z,98571
2019-04-28T14:16:06.000Z,98573
2019-04-28T14:18:12.000Z,98570
2019-04-28T14:19:39.000Z,98565
2019-04-28T14:21:43.000Z,98562
2019-04-28T14:23:06.000Z,98561
2019-04-28T14:25:15.000Z,98560
2019-04-28T14:26:37.000Z,98560
2019-04-28T14:28:49.000Z,98560
2019-04-28T14:30:12.000Z,98562
2019-04-28T14:32:13.000Z,98565
2019-04-28T14:33:36.000Z,98566
2019-04-28T14:35:39.000Z,98562
2019-04-28T14:37:07.000Z,98558
2019-04-28T14:39:10.000Z,98555
2019-04-28T14:40:35.000Z,98551
2019-04-28T14:42:39.000Z,98552
2019-04-28T14:44:04.000Z,98551
2019-04-28T14:46:09.000Z,98548
2019-04-28T14:47:32.000Z,98545
2019-04-28T14:49:41.000Z,98547
2019-04-28T14:51:08.000Z,98547
2019-04-28T14:53:14.000Z,98546
2019-04-28T14:54:44.000Z,98541
2019-04-28T14:56:49.000Z,98541
2019-04-28T14:58:15.000Z,98540
2019-04-28T15:00:23.000Z,98544
2019-04-28T15:01:50.000Z,98543
2019-04-28T15:03:59.000Z,98544
2019-04-28T15:05:24.000Z,98545
2019-04-28T15:07:33.000Z,98544
2019-04-28T15:08:58.000Z,98547
2019-04-28T15:11:07.000Z,98546
2019-04-28T15:12:36.000Z,98545
2019-04-28T15:14:48.000Z,98545
2019-04-28T15:16:16.000Z,98546
2019-04-28T15:18:26.000Z,98552
2019-04-28T15:19:59.000Z,98553
2019-04-28T15:22:08.000Z,98555
2019-04-28T15:23:33.000Z,98555
2019-04-28T15:25:41.000Z,98552
2019-04-28T15:27:12.000Z,98550
2019-04-28T15:29:23.000Z,98548
2019-04-28T15:30:50.000Z,98550
2019-04-28T15:32:59.000Z,98552
2019-04-28T15:34:28.000Z,98552
2019-04-28T15:36:37.000Z,98550
2019-04-28T15:38:03.000Z,98549
2019-04-28T15:40:09.000Z,98550
2019-04-28T15:41:37.000Z,98551
2019-04-28T15:43:53.000Z,98554
2019-04-28T15:45:27.000Z,98554
2019-04-28T15:49:05.000Z,98553
2019-04-28T15:55:23.000Z,98555
2019-04-28T15:56:45.000Z,98553
2019-04-28T15:58:46.000Z,98552
2019-04-28T16:00:10.000Z,98552
2019-04-28T16:02:11.000Z,98552
2019-04-28T16:03:33.000Z,98552
2019-04-28T16:05:34.000Z,98552
2019-04-28T16:06:56.000Z,98552
2019-04-28T16:08:57.000Z,98556
2019-04-28T16:10:20.000Z,98555
2019-04-28T16:12:21.000Z,98558
2019-04-28T16:13:44.000Z,98561
2019-04-28T16:15:45.000Z,98562
2019-04-28T16:17:07.000Z,98562
2019-04-28T16:19:08.000Z,98564
2019-04-28T16:20:30.000Z,98566
2019-04-28T16:22:31.000Z,98568
2019-04-28T16:23:54.000Z,98568
2019-04-28T16:25:57.000Z,98568
2019-04-28T16:27:19.000Z,98567
2019-04-28T16:29:20.000Z,98570
2019-04-28T16:30:43.000Z,98572
2019-04-28T16:32:45.000Z,98576
2019-04-28T16:34:07.000Z,98577
2019-04-28T16:36:08.000Z,98579
2019-04-28T16:37:31.000Z,98578
2019-04-28T16:39:41.000Z,98579
2019-04-28T16:41:03.000Z,98577
2019-04-28T16:43:04.000Z,98574
2019-04-28T16:44:26.000Z,98573
2019-04-28T16:46:27.000Z,98573
2019-04-28T16:47:50.000Z,98576
2019-04-28T16:49:55.000Z,98575
2019-04-28T16:51:17.000Z,98578
2019-04-28T16:53:18.000Z,98579
2019-04-28T16:54:41.000Z,98581
2019-04-28T16:56:42.000Z,98582
2019-04-28T16:58:06.000Z,98583
2019-04-28T17:00:07.000Z,98584
2019-04-28T17:01:30.000Z,98586
2019-04-28T17:03:33.000Z,98590
2019-04-28T17:04:56.000Z,98591
2019-04-28T17:06:58.000Z,98595
2019-04-28T17:08:23.000Z,98599
2019-04-28T17:10:25.000Z,98599
2019-04-28T17:11:47.000Z,98596
2019-04-28T17:13:48.000Z,98594
2019-04-28T17:15:10.000Z,98592
2019-04-28T17:17:12.000Z,98592
2019-04-28T17:18:36.000Z,98595
2019-04-28T17:20:39.000Z,98597
2019-04-28T17:22:03.000Z,98598
2019-04-28T17:24:04.000Z,98600
2019-04-28T17:25:30.000Z,98598
2019-04-28T17:27:34.000Z,98599
2019-04-28T17:28:58.000Z,98604
2019-04-28T17:31:01.000Z,98605
2019-04-28T17:32:25.000Z,98607
2019-04-28T17:34:26.000Z,98606
2019-04-28T17:35:49.000Z,98609
2019-04-28T17:37:50.000Z,98613
2019-04-28T17:39:14.000Z,98616
2019-04-28T17:41:15.000Z,98619
2019-04-28T17:42:37.000Z,98622
2019-04-28T17:44:42.000Z,98625
2019-04-28T17:46:05.000Z,98627
2019-04-28T17:48:06.000Z,98628
2019-04-28T17:49:30.000Z,98631
2019-04-28T17:51:32.000Z,98635
2019-04-28T17:52:58.000Z,98638
2019-04-28T17:55:02.000Z,98641
2019-04-28T17:56:24.000Z,98643
2019-04-28T17:58:27.000Z,98645
2019-04-28T17:59:49.000Z,98649
2019-04-28T18:01:51.000Z,98652
2019-04-28T18:03:17.000Z,98654
2019-04-28T18:05:20.000Z,98655
2019-04-28T18:06:42.000Z,98661
2019-04-28T18:08:44.000Z,98663
2019-04-28T18:10:06.000Z,98665
2019-04-28T18:12:14.000Z,98665
2019-04-28T18:13:38.000Z,98666
2019-04-28T18:15:42.000Z,98668
2019-04-28T18:17:09.000Z,98669
2019-04-28T18:19:13.000Z,98672
2019-04-28T18:20:39.000Z,98674
2019-04-28T18:22:50.000Z,98678
2019-04-28T18:24:18.000Z,98677
2019-04-28T18:26:21.000Z,98679
2019-04-28T18:27:44.000Z,98682
2019-04-28T18:29:49.000Z,98686
2019-04-28T18:31:13.000Z,98687
2019-04-28T18:33:18.000Z,98688
2019-04-28T18:34:42.000Z,98692
2019-04-28T18:36:51.000Z,98694
2019-04-28T18:38:14.000Z,98694
2019-04-28T18:40:24.000Z,98696
2019-04-28T18:41:48.000Z,98698
2019-04-28T18:44:01.000Z,98703
2019-04-28T18:45:25.000Z,98707
2019-04-28T18:47:32.000Z,98708
2019-04-28T18:48:58.000Z,98711
2019-04-28T18:51:02.000Z,98713
2019-04-28T18:52:26.000Z,98714
2019-04-28T18:54:32.000Z,98716
2019-04-28T18:55:57.000Z,98722
2019-04-28T18:58:04.000Z,98725
2019-04-28T18:59:29.000Z,98726
2019-04-28T19:01:37.000Z,98729
2019-04-28T19:03:04.000Z,98729
2019-04-28T19:05:09.000Z,98734
2019-04-28T19:06:36.000Z,98736
2019-04-28T19:08:45.000Z,98741
2019-04-28T19:10:15.000Z,98745
2019-04-28T19:12:19.000Z,98747
2019-04-28T19:13:43.000Z,98751
2019-04-28T19:15:52.000Z,98752
2019-04-28T19:17:20.000Z,98752
2019-04-28T19:19:24.000Z,98752
2019-04-28T19:20:49.000Z,98754
2019-04-28T19:22:53.000Z,98758
2019-04-28T19:24:24.000Z,98759
2019-04-28T19:26:32.000Z,98760
2019-04-28T19:27:59.000Z,98761
2019-04-28T19:30:09.000Z,98760
2019-04-28T19:31:41.000Z,98762
2019-04-28T19:33:47.000Z,98763
2019-04-28T19:35:18.000Z,98765
2019-04-28T19:37:26.000Z,98768
2019-04-28T19:38:55.000Z,98769
2019-04-28T19:41:13.000Z,98770
2019-04-28T19:42:42.000Z,98774
2019-04-28T19:44:49.000Z,98777
2019-04-28T19:46:14.000Z,98779
2019-04-28T19:48:27.000Z,98782
2019-04-28T19:49:54.000Z,98783
2019-04-28T19:52:05.000Z,98784
2019-04-28T19:53:32.000Z,98786
2019-04-28T19:55:42.000Z,98788
2019-04-28T19:57:13.000Z,98790
2019-04-28T19:59:22.000Z,98790
2019-04-28T20:00:48.000Z,98790
2019-04-28T20:02:55.000Z,98792
2019-04-28T20:04:25.000Z,98797
2019-04-28T20:06:35.000Z,98798
2019-04-28T20:08:02.000Z,98798
2019-04-28T20:11:47.000Z,98800
2019-04-28T20:12:37.000Z,98801
2019-04-28T20:14:05.000Z,98806
2019-04-28T20:16:15.000Z,98806
2019-04-28T20:17:44.000Z,98807
2019-04-28T20:19:50.000Z,98807
2019-04-28T20:21:20.000Z,98809
2019-04-28T20:23:30.000Z,98808
2019-04-28T20:24:59.000Z,98813
2019-04-28T20:27:10.000Z,98812
2019-04-28T20:28:39.000Z,98812
2019-04-28T20:30:48.000Z,98812
2019-04-28T20:32:21.000Z,98814
2019-04-28T20:34:32.000Z,98814
2019-04-28T20:36:02.000Z,98819
2019-04-28T20:38:15.000Z,98821
2019-04-28T20:39:44.000Z,98824
2019-04-28T20:47:14.000Z,98831
2019-04-28T20:48:36.000Z,98831
2019-04-28T20:50:37.000Z,98829
2019-04-28T20:51:59.000Z,98829
2019-04-28T20:54:00.000Z,98825
2019-04-28T20:55:22.000Z,98828
2019-04-28T20:57:23.000Z,98828
2019-04-28T20:58:45.000Z,98827
2019-04-28T21:00:46.000Z,98829
2019-04-28T21:02:08.000Z,98831
2019-04-28T21:04:09.000Z,98833
2019-04-28T21:05:31.000Z,98833
2019-04-28T21:07:32.000Z,98834
2019-04-28T21:08:54.000Z,98834
2019-04-28T21:10:56.000Z,98834
2019-04-28T21:12:18.000Z,98836
2019-04-28T21:14:19.000Z,98835
2019-04-28T21:15:43.000Z,98836
2019-04-28T21:17:44.000Z,98836
2019-04-28T21:19:07.000Z,98836
2019-04-28T21:21:10.000Z,98837
2019-04-28T21:22:32.000Z,98839
2019-04-28T21:24:34.000Z,98842
2019-04-28T21:25:56.000Z,98845
2019-04-28T21:27:58.000Z,98847
2019-04-28T21:29:20.000Z,98852
2019-04-28T21:31:22.000Z,98856
2019-04-28T21:32:45.000Z,98858
2019-04-28T21:34:47.000Z,98859
2019-04-28T21:36:10.000Z,98864
2019-04-28T21:38:11.000Z,98867
2019-04-28T21:39:34.000Z,98869
2019-04-28T21:41:34.000Z,98872
2019-04-28T21:42:56.000Z,98873
2019-04-28T21:44:57.000Z,98873
2019-04-28T21:46:19.000Z,98874
2019-04-28T21:48:20.000Z,98875
2019-04-28T21:49:44.000Z,98881
2019-04-28T21:51:45.000Z,98883
2019-04-28T21:53:07.000Z,98886
2019-04-28T21:55:08.000Z,98886
2019-04-28T21:56:30.000Z,98891
2019-04-28T21:58:31.000Z,98892
2019-04-28T21:59:55.000Z,98892
2019-04-28T22:01:56.000Z,98892
2019-04-28T22:03:19.000Z,98895
2019-04-28T22:05:20.000Z,98897
2019-04-28T22:06:52.000Z,98899
2019-04-28T22:08:54.000Z,98900
2019-04-28T22:10:17.000Z,98901
2019-04-28T22:12:18.000Z,98902
2019-04-28T22:13:40.000Z,98902
2019-04-28T22:15:41.000Z,98902
2019-04-28T22:17:03.000Z,98902
2019-04-28T22:19:08.000Z,98906
2019-04-28T22:20:31.000Z,98907
2019-04-28T22:22:33.000Z,98906
2019-04-28T22:23:56.000Z,98906
2019-04-28T22:25:59.000Z,98903
2019-04-28T22:27:23.000Z,98902
2019-04-28T22:29:30.000Z,98902
2019-04-28T22:30:54.000Z,98899
2019-04-28T22:33:00.000Z,98898
2019-04-28T22:34:24.000Z,98900
2019-04-28T22:36:25.000Z,98901
2019-04-28T22:37:49.000Z,98900
2019-04-28T22:39:51.000Z,98901
2019-04-28T22:41:13.000Z,98903
2019-04-28T22:43:16.000Z,98905
2019-04-28T22:44:40.000Z,98907
2019-04-28T22:46:45.000Z,98906
2019-04-28T22:48:10.000Z,98907
2019-04-28T22:50:14.000Z,98912
2019-04-28T22:51:36.000Z,98914
2019-04-28T22:53:41.000Z,98917
2019-04-28T22:55:07.000Z,98917
2019-04-28T22:57:09.000Z,98918
2019-04-28T22:58:35.000Z,98919
2019-04-28T23:00:38.000Z,98920
2019-04-28T23:02:02.000Z,98921
2019-04-28T23:04:05.000Z,98920
2019-04-28T23:05:27.000Z,98923
2019-04-28T23:07:35.000Z,98923
2019-04-28T23:08:57.000Z,98925
2019-04-28T23:11:03.000Z,98927